Time;durP1;ratioP1;P1;durP2;ratioP2;P2;SDS_P1;SDS_P2;PMS_P1;PMS_P2;Temp;Humidity;BMP_temperature;BMP_pressure;BME280_temperature;BME280_humidity;BME280_pressure;Samples;Min_cycle;Max_cycle;Signal;HPM_P1;HPM_P2
2022/05/23 00:01:15;;;;;;;4.68;4.13;;;;;;;;;;5040837;28;20045;-81
2022/05/23 00:04:01;;;;;;;4.57;3.75;;;;;;;;;;5047556;28;20053;-81
2022/05/23 00:06:49;;;;;;;7.47;4.07;;;;;;;;;;5040551;28;20041;-81
2022/05/23 00:09:34;;;;;;;5.38;4.18;;;;;;;;;;5046918;28;20404;-81
2022/05/23 00:12:22;;;;;;;5.38;4.15;;;;;;;;;;5039210;28;20050;-81
2022/05/23 00:15:10;;;;;;;6.32;4.20;;;;;;;;;;5035595;28;20485;-82
2022/05/23 00:17:55;;;;;;;5.72;4.13;;;;;;;;;;5041245;28;20393;-81
2022/05/23 00:20:41;;;;;;;5.53;4.00;;;;;;;;;;5034713;28;20053;-81
2022/05/23 00:23:26;;;;;;;6.18;4.15;;;;;;;;;;5040609;28;20053;-81
2022/05/23 00:26:14;;;;;;;7.40;3.80;;;;;;;;;;5026186;28;20045;-81
2022/05/23 00:28:59;;;;;;;5.95;4.22;;;;;;;;;;5025975;28;20492;-82
2022/05/23 00:37:56;;;;;;;4.90;3.78;;;;;;;;;;5040299;28;20049;-81
2022/05/23 00:44:23;;;;;;;6.38;3.60;;;;;;;;;;5033681;28;20061;-81
2022/05/23 00:47:21;;;;;;;4.38;3.50;;;;;;;;;;5034089;28;20495;-81
2022/05/23 00:50:07;;;;;;;6.28;3.78;;;;;;;;;;5034074;28;20492;-81
2022/05/23 00:52:54;;;;;;;5.78;3.88;;;;;;;;;;5034281;28;20420;-81
2022/05/23 00:55:44;;;;;;;5.57;3.45;;;;;;;;;;5034162;28;20053;-81
2022/05/23 00:58:39;;;;;;;5.80;3.45;;;;;;;;;;5042088;28;20400;-81
2022/05/23 01:01:28;;;;;;;5.30;3.65;;;;;;;;;;5038346;28;20053;-81
2022/05/23 01:04:14;;;;;;;5.10;3.83;;;;;;;;;;5041536;28;20049;-80
2022/05/23 01:06:59;;;;;;;4.97;3.60;;;;;;;;;;5026266;28;20053;-81
2022/05/23 01:09:44;;;;;;;3.70;3.20;;;;;;;;;;5034063;28;20392;-81
2022/05/23 01:12:30;;;;;;;6.20;3.90;;;;;;;;;;5039845;28;20054;-80
2022/05/23 01:15:24;;;;;;;3.95;3.42;;;;;;;;;;5025918;28;20037;-81
2022/05/23 01:18:10;;;;;;;5.32;3.85;;;;;;;;;;5040251;28;20492;-80
2022/05/23 01:21:04;;;;;;;6.20;4.32;;;;;;;;;;5039267;28;20396;-81
2022/05/23 01:24:21;;;;;;;5.03;4.10;;;;;;;;;;5025928;28;20392;-81
2022/05/23 01:27:11;;;;;;;4.75;4.22;;;;;;;;;;5024999;28;20045;-80
2022/05/23 01:29:58;;;;;;;4.80;4.00;;;;;;;;;;5025685;28;20045;-81
2022/05/23 01:32:43;;;;;;;5.38;4.07;;;;;;;;;;5024919;28;20396;-81
2022/05/23 01:35:29;;;;;;;6.45;4.15;;;;;;;;;;5025142;28;20049;-81
2022/05/23 01:38:15;;;;;;;6.68;4.13;;;;;;;;;;5025856;28;20384;-81
2022/05/23 01:41:26;;;;;;;6.93;4.07;;;;;;;;;;5034836;28;20388;-81
2022/05/23 01:44:20;;;;;;;6.40;4.07;;;;;;;;;;5025540;28;20058;-81
2022/05/23 01:47:21;;;;;;;7.10;4.63;;;;;;;;;;5038738;28;20408;-81
2022/05/23 01:50:12;;;;;;;7.22;4.60;;;;;;;;;;5026515;28;20049;-82
2022/05/23 01:53:01;;;;;;;5.55;3.90;;;;;;;;;;5028623;28;20045;-81
2022/05/23 01:56:15;;;;;;;4.93;4.38;;;;;;;;;;5029038;28;20045;-81
2022/05/23 02:02:15;;;;;;;5.85;4.03;;;;;;;;;;5028629;28;20049;-81
2022/05/23 02:05:01;;;;;;;6.28;3.55;;;;;;;;;;5043508;28;20049;-81
2022/05/23 02:07:46;;;;;;;6.13;3.75;;;;;;;;;;5028579;28;20045;-81
2022/05/23 02:10:32;;;;;;;6.18;3.80;;;;;;;;;;5028642;28;20049;-80
2022/05/23 02:13:21;;;;;;;4.80;3.90;;;;;;;;;;5027889;28;20079;-80
2022/05/23 02:16:07;;;;;;;8.95;3.88;;;;;;;;;;5029201;28;20049;-80
2022/05/23 02:19:02;;;;;;;5.75;3.85;;;;;;;;;;5028505;28;20041;-81
2022/05/23 02:21:48;;;;;;;7.40;4.03;;;;;;;;;;5027876;28;20049;-82
2022/05/23 02:24:34;;;;;;;12.00;5.47;;;;;;;;;;5028526;28;20049;-81
2022/05/23 02:27:20;;;;;;;9.73;6.80;;;;;;;;;;5028418;28;20045;-81
2022/05/23 02:30:07;;;;;;;15.85;6.95;;;;;;;;;;5028132;28;20045;-80
2022/05/23 02:32:54;;;;;;;11.32;7.55;;;;;;;;;;5028009;28;20049;-80
2022/05/23 02:35:39;;;;;;;10.00;6.80;;;;;;;;;;5027685;28;20045;-81
2022/05/23 02:38:25;;;;;;;10.77;7.15;;;;;;;;;;5028016;28;20049;-81
2022/05/23 02:41:10;;;;;;;11.25;6.43;;;;;;;;;;5021936;28;20477;-81
2022/05/23 02:43:58;;;;;;;12.05;7.25;;;;;;;;;;5028233;28;20057;-81
2022/05/23 02:46:46;;;;;;;21.70;8.18;;;;;;;;;;5028006;28;20041;-81
2022/05/23 02:49:36;;;;;;;15.13;7.72;;;;;;;;;;5027574;28;20049;-82
2022/05/23 02:52:21;;;;;;;15.30;8.40;;;;;;;;;;5027844;28;20053;-82
2022/05/23 02:55:21;;;;;;;12.07;7.82;;;;;;;;;;5027508;28;20479;-82
2022/05/23 02:58:08;;;;;;;13.18;7.07;;;;;;;;;;5041922;28;20472;-82
2022/05/23 03:00:53;;;;;;;10.73;6.13;;;;;;;;;;5027273;28;20041;-81
2022/05/23 03:03:39;;;;;;;8.68;5.32;;;;;;;;;;5027299;28;20484;-82
2022/05/23 03:06:24;;;;;;;8.82;5.22;;;;;;;;;;5035880;28;20054;-82
2022/05/23 03:09:11;;;;;;;8.88;5.55;;;;;;;;;;5026978;28;20511;-80
2022/05/23 03:11:57;;;;;;;8.88;5.90;;;;;;;;;;5041232;28;20480;-81
2022/05/23 03:14:45;;;;;;;8.50;6.15;;;;;;;;;;5027245;28;20049;-81
2022/05/23 03:17:32;;;;;;;7.63;5.85;;;;;;;;;;5040690;28;20045;-80
2022/05/23 03:20:18;;;;;;;8.45;6.22;;;;;;;;;;5026955;28;20045;-80
2022/05/23 03:29:13;;;;;;;11.52;6.43;;;;;;;;;;5027372;28;20049;-81
2022/05/23 03:31:59;;;;;;;9.52;6.30;;;;;;;;;;5026769;28;20053;-80
2022/05/23 03:34:45;;;;;;;8.65;6.43;;;;;;;;;;5040928;28;20045;-81
2022/05/23 03:37:33;;;;;;;11.05;6.00;;;;;;;;;;5026750;28;20049;-81
2022/05/23 03:40:25;;;;;;;6.75;5.80;;;;;;;;;;5041312;28;20053;-81
2022/05/23 03:43:16;;;;;;;8.40;6.10;;;;;;;;;;5027326;28;20053;-79
2022/05/23 03:46:11;;;;;;;8.05;5.70;;;;;;;;;;5025318;28;20049;-78
2022/05/23 03:48:57;;;;;;;11.05;6.47;;;;;;;;;;5025443;28;20038;-84
2022/05/23 03:51:42;;;;;;;9.75;5.68;;;;;;;;;;5024745;28;20476;-80
2022/05/23 03:54:28;;;;;;;9.02;6.05;;;;;;;;;;5029768;28;20045;-81
2022/05/23 03:57:14;;;;;;;7.38;6.38;;;;;;;;;;5030320;28;20476;-82
2022/05/23 03:59:59;;;;;;;7.53;6.07;;;;;;;;;;5026262;28;20045;-80
2022/05/23 04:02:47;;;;;;;7.10;5.75;;;;;;;;;;5026948;28;20053;-81
2022/05/23 04:05:33;;;;;;;6.30;5.50;;;;;;;;;;5026107;28;20057;-81
2022/05/23 04:08:18;;;;;;;8.30;6.35;;;;;;;;;;5041696;28;20041;-82
2022/05/23 04:11:09;;;;;;;7.15;6.18;;;;;;;;;;5026504;28;20049;-81
2022/05/23 04:13:55;;;;;;;10.57;6.10;;;;;;;;;;5025049;28;20041;-83
2022/05/23 04:16:45;;;;;;;10.38;5.43;;;;;;;;;;5026045;28;20049;-83
2022/05/23 04:19:31;;;;;;;9.57;7.10;;;;;;;;;;5025687;28;20472;-81
2022/05/23 04:22:34;;;;;;;15.77;8.75;;;;;;;;;;5027447;28;20049;-84
2022/05/23 04:25:28;;;;;;;20.35;8.98;;;;;;;;;;5035348;28;20045;-82
2022/05/23 04:28:15;;;;;;;12.20;7.68;;;;;;;;;;5027822;28;20408;-81
2022/05/23 04:31:02;;;;;;;11.55;7.75;;;;;;;;;;5040155;28;20050;-82
2022/05/23 04:37:13;;;;;;;8.35;6.38;;;;;;;;;;5031316;28;20050;-83
2022/05/23 04:40:07;;;;;;;8.63;6.65;;;;;;;;;;5035831;28;20054;-80
2022/05/23 04:42:54;;;;;;;8.63;6.50;;;;;;;;;;5031127;28;20053;-82
2022/05/23 04:45:40;;;;;;;11.88;6.05;;;;;;;;;;5026197;28;20049;-81
2022/05/23 04:51:41;;;;;;;11.35;5.88;;;;;;;;;;5026834;28;20480;-80
2022/05/23 04:54:27;;;;;;;13.15;5.22;;;;;;;;;;5018209;28;20050;-80
2022/05/23 04:57:15;;;;;;;9.45;5.78;;;;;;;;;;5005884;28;20046;-80
2022/05/23 05:00:06;;;;;;;10.63;4.18;;;;;;;;;;5006011;28;20041;-80
2022/05/23 05:03:01;;;;;;;7.78;4.80;;;;;;;;;;5024272;28;20053;-80
2022/05/23 05:06:00;;;;;;;8.25;4.47;;;;;;;;;;5039321;28;20050;-81
2022/05/23 05:08:46;;;;;;;7.57;4.30;;;;;;;;;;5031709;28;20045;-78
2022/05/23 05:11:32;;;;;;;9.13;4.35;;;;;;;;;;5037600;28;20045;-81
2022/05/23 05:14:30;;;;;;;5.90;4.10;;;;;;;;;;5039258;28;20049;-83
2022/05/23 05:17:21;;;;;;;9.82;4.38;;;;;;;;;;5038874;28;20057;-80
2022/05/23 05:20:08;;;;;;;6.63;4.03;;;;;;;;;;5039801;28;20049;-80
2022/05/23 05:23:12;;;;;;;8.02;3.60;;;;;;;;;;5033240;28;20050;-80
2022/05/23 05:26:20;;;;;;;4.15;3.05;;;;;;;;;;5023512;28;20045;-81
2022/05/23 05:29:08;;;;;;;9.50;4.20;;;;;;;;;;5043115;28;20465;-81
2022/05/23 05:31:59;;;;;;;6.57;4.07;;;;;;;;;;5043243;28;20041;-79
2022/05/23 05:34:51;;;;;;;7.55;4.25;;;;;;;;;;5037669;28;20045;-79
2022/05/23 05:37:45;;;;;;;8.30;3.97;;;;;;;;;;5036766;28;20041;-79
2022/05/23 05:40:33;;;;;;;5.07;3.80;;;;;;;;;;5037116;28;20061;-79
2022/05/23 05:43:22;;;;;;;6.05;4.00;;;;;;;;;;5042765;28;20043;-79
2022/05/23 05:46:15;;;;;;;10.15;4.78;;;;;;;;;;5043433;28;20053;-79
2022/05/23 05:49:16;;;;;;;6.50;3.85;;;;;;;;;;5042863;28;20045;-78
2022/05/23 05:52:03;;;;;;;10.03;3.77;;;;;;;;;;5042347;28;20404;-78
2022/05/23 05:55:08;;;;;;;9.05;4.30;;;;;;;;;;5043451;28;20290;-79
2022/05/23 05:57:53;;;;;;;7.72;3.28;;;;;;;;;;5042353;28;20057;-81
2022/05/23 06:00:39;;;;;;;7.03;3.30;;;;;;;;;;5042865;28;20053;-78
2022/05/23 06:03:25;;;;;;;9.23;3.08;;;;;;;;;;5042441;28;20053;-79
2022/05/23 06:13:05;;;;;;;12.25;4.43;;;;;;;;;;5041127;28;20053;-78
2022/05/23 06:16:01;;;;;;;8.60;3.85;;;;;;;;;;5029006;28;20037;-80
2022/05/23 06:18:55;;;;;;;13.30;5.47;;;;;;;;;;5030653;28;20473;-81
2022/05/23 06:21:41;;;;;;;10.20;4.15;;;;;;;;;;5029144;28;20045;-78
2022/05/23 06:24:26;;;;;;;9.95;3.80;;;;;;;;;;5014592;28;20053;-78
2022/05/23 06:27:18;;;;;;;7.18;3.30;;;;;;;;;;5042686;28;20045;-78
2022/05/23 06:30:25;;;;;;;7.55;3.60;;;;;;;;;;5041782;28;20049;-80
2022/05/23 06:33:12;;;;;;;8.90;3.40;;;;;;;;;;5042642;28;20045;-80
2022/05/23 06:36:06;;;;;;;11.07;5.10;;;;;;;;;;5027125;28;20033;-80
2022/05/23 06:38:52;;;;;;;8.02;3.55;;;;;;;;;;5027825;28;20041;-76
2022/05/23 06:41:56;;;;;;;6.07;3.28;;;;;;;;;;5036179;28;20042;-80
2022/05/23 06:45:15;;;;;;;8.88;2.95;;;;;;;;;;5023951;28;20050;-81
2022/05/23 06:48:23;;;;;;;6.45;3.10;;;;;;;;;;5017140;28;20046;-82
2022/05/23 06:51:17;;;;;;;;;;;;;;;;;;5028651;28;20046;-79
2022/05/23 06:54:05;;;;;;;5.57;2.63;;;;;;;;;;5027523;28;19917;-79
2022/05/23 06:57:01;;;;;;;4.43;2.58;;;;;;;;;;5027641;28;20046;-84
2022/05/23 06:59:46;;;;;;;7.30;2.42;;;;;;;;;;5027675;28;20042;-79
2022/05/23 07:02:32;;;;;;;4.50;2.33;;;;;;;;;;5027178;28;20041;-80
2022/05/23 07:14:44;;;;;;;6.85;2.72;;;;;;;;;;5026997;28;20050;-79
2022/05/23 07:17:30;;;;;;;6.65;3.05;;;;;;;;;;5041162;28;20054;-81
2022/05/23 07:20:32;;;;;;;6.28;2.92;;;;;;;;;;5027144;28;20041;-80
2022/05/23 07:23:30;;;;;;;6.35;2.88;;;;;;;;;;5026744;28;20045;-79
2022/05/23 07:26:30;;;;;;;5.00;3.00;;;;;;;;;;5027256;28;20057;-79
2022/05/23 07:29:16;;;;;;;5.38;3.17;;;;;;;;;;5027022;28;20057;-79
2022/05/23 07:32:04;;;;;;;8.55;3.22;;;;;;;;;;5041233;28;20053;-80
2022/05/23 07:34:51;;;;;;;7.82;3.45;;;;;;;;;;5026505;28;20050;-78
2022/05/23 07:37:37;;;;;;;9.23;3.80;;;;;;;;;;5027125;28;20502;-80
2022/05/23 07:40:23;;;;;;;10.98;4.07;;;;;;;;;;5023670;28;20046;-81
2022/05/23 07:43:23;;;;;;;11.13;4.10;;;;;;;;;;5026375;28;20041;-81
2022/05/23 07:46:14;;;;;;;9.90;4.20;;;;;;;;;;5026723;28;20049;-80
2022/05/23 07:49:05;;;;;;;6.75;4.20;;;;;;;;;;5026034;28;20049;-80
2022/05/23 07:51:53;;;;;;;8.00;4.15;;;;;;;;;;5026309;28;20480;-80
2022/05/23 08:01:04;;;;;;;8.40;2.83;;;;;;;;;;5015724;28;20396;-80
2022/05/23 08:03:50;;;;;;;7.85;3.53;;;;;;;;;;5040894;28;20049;-79
2022/05/23 08:06:41;;;;;;;8.63;4.00;;;;;;;;;;5040221;28;20072;-81
2022/05/23 08:09:27;;;;;;;8.68;3.55;;;;;;;;;;5026434;28;20050;-83
2022/05/23 08:12:24;;;;;;;6.07;3.53;;;;;;;;;;5025646;28;20049;-82
2022/05/23 08:15:10;;;;;;;8.00;3.22;;;;;;;;;;5026184;28;20050;-81
2022/05/23 08:17:59;;;;;;;5.55;3.17;;;;;;;;;;5039624;28;20049;-82
2022/05/23 08:20:53;;;;;;;5.15;2.92;;;;;;;;;;5026084;28;20053;-80
2022/05/23 08:23:43;;;;;;;7.05;3.15;;;;;;;;;;5026200;28;20049;-81
2022/05/23 08:26:34;;;;;;;5.85;3.13;;;;;;;;;;5025775;28;20068;-78
2022/05/23 08:29:20;;;;;;;12.63;3.78;;;;;;;;;;5025869;28;20049;-77
2022/05/23 08:32:21;;;;;;;10.23;3.50;;;;;;;;;;5025240;28;20045;-77
2022/05/23 08:35:29;;;;;;;14.63;3.80;;;;;;;;;;5040507;28;20045;-78
2022/05/23 08:38:24;;;;;;;9.15;3.10;;;;;;;;;;5025457;28;20053;-80
2022/05/23 08:41:24;;;;;;;9.77;3.20;;;;;;;;;;5019978;28;20085;-79
2022/05/23 08:44:45;;;;;;;15.95;3.03;;;;;;;;;;5040393;28;20053;-79
2022/05/23 08:47:55;;;;;;;8.23;3.00;;;;;;;;;;5039857;28;20045;-78
2022/05/23 08:51:06;;;;;;;4.40;2.90;;;;;;;;;;5025689;28;20053;-81
2022/05/23 08:54:18;;;;;;;28.25;3.78;;;;;;;;;;5026001;28;20438;-79
2022/05/23 08:57:35;;;;;;;5.45;2.45;;;;;;;;;;5036154;28;20037;-79
2022/05/23 09:00:27;;;;;;;9.25;2.55;;;;;;;;;;5040114;28;20046;-80
2022/05/23 09:03:34;;;;;;;5.07;2.22;;;;;;;;;;5026503;28;20049;-81
2022/05/23 09:06:26;;;;;;;;;;;;;;;;;;5025603;28;20496;-81
2022/05/23 09:09:15;;;;;;;7.80;2.90;;;;;;;;;;5040377;28;19913;-78
2022/05/23 09:12:14;;;;;;;5.57;2.92;;;;;;;;;;5033764;28;20488;-80
2022/05/23 09:15:03;;;;;;;6.78;2.58;;;;;;;;;;5039644;28;20046;-81
2022/05/23 09:17:58;;;;;;;4.95;2.55;;;;;;;;;;5033637;28;20037;-81
2022/05/23 09:20:49;;;;;;;4.57;2.45;;;;;;;;;;5039667;28;20050;-82
2022/05/23 09:23:41;;;;;;;20.42;2.90;;;;;;;;;;5039848;28;20046;-80
2022/05/23 09:26:28;;;;;;;8.10;2.70;;;;;;;;;;5040376;28;20045;-80
2022/05/23 09:29:14;;;;;;;4.18;2.60;;;;;;;;;;5039775;28;20049;-78
2022/05/23 09:32:08;;;;;;;6.25;2.95;;;;;;;;;;5040338;28;20057;-81
2022/05/23 09:34:59;;;;;;;5.35;2.95;;;;;;;;;;5033323;28;20053;-82
2022/05/23 09:37:48;;;;;;;5.10;2.85;;;;;;;;;;5033558;28;20042;-81
2022/05/23 09:40:38;;;;;;;4.88;3.10;;;;;;;;;;5021063;28;20045;-79
2022/05/23 09:49:44;;;;;;;5.93;2.25;;;;;;;;;;5033062;28;20396;-81
2022/05/23 09:52:32;;;;;;;;;;;;;;;;;;5040615;28;20050;-80
2022/05/23 09:55:31;;;;;;;4.70;2.22;;;;;;;;;;5032783;28;20233;-80
2022/05/23 09:58:23;;;;;;;5.13;1.88;;;;;;;;;;5039894;28;20041;-80
2022/05/23 10:01:11;;;;;;;2.70;1.80;;;;;;;;;;5040357;28;20049;-81
2022/05/23 10:03:59;;;;;;;5.93;1.95;;;;;;;;;;5032853;28;20388;-81
2022/05/23 10:06:51;;;;;;;2.28;1.52;;;;;;;;;;5033124;28;20041;-81
2022/05/23 10:09:37;;;;;;;3.63;1.70;;;;;;;;;;5032423;28;20049;-80
2022/05/23 10:12:41;;;;;;;3.25;2.00;;;;;;;;;;5035832;28;20473;-81
2022/05/23 10:15:32;;;;;;;4.28;1.50;;;;;;;;;;5043263;28;20049;-78
2022/05/23 10:18:30;;;;;;;3.17;1.38;;;;;;;;;;5042689;28;20472;-80
2022/05/23 10:21:26;;;;;;;2.75;1.70;;;;;;;;;;5043502;28;20049;-79
2022/05/23 10:24:26;;;;;;;3.13;1.52;;;;;;;;;;5036089;28;20403;-79
2022/05/23 10:27:17;;;;;;;2.30;1.40;;;;;;;;;;5036076;28;20392;-80
2022/05/23 10:30:06;;;;;;;4.53;1.60;;;;;;;;;;5042647;28;20215;-80
2022/05/23 10:33:05;;;;;;;3.50;1.50;;;;;;;;;;5036055;28;20061;-78
2022/05/23 10:36:05;;;;;;;5.43;1.92;;;;;;;;;;5043023;28;20041;-78
2022/05/23 10:42:17;;;;;;;25.23;2.72;;;;;;;;;;5042585;28;20049;-79
2022/05/23 10:45:33;;;;;;;2.25;1.60;;;;;;;;;;5035753;28;20369;-81
2022/05/23 10:48:43;;;;;;;7.15;1.70;;;;;;;;;;5035903;28;20472;-81
2022/05/23 10:51:29;;;;;;;15.35;1.95;;;;;;;;;;5040434;28;20109;-80
2022/05/23 10:54:36;;;;;;;8.43;1.58;;;;;;;;;;5041684;28;20480;-81
2022/05/23 10:57:43;;;;;;;28.60;2.70;;;;;;;;;;5035671;28;20045;-80
2022/05/23 11:00:50;;;;;;;14.27;2.55;;;;;;;;;;5035655;28;20042;-81
2022/05/23 11:03:45;;;;;;;3.97;1.58;;;;;;;;;;5042165;28;20050;-81
2022/05/23 11:06:51;;;;;;;8.40;1.85;;;;;;;;;;5027360;28;20053;-81
2022/05/23 11:09:52;;;;;;;3.88;1.67;;;;;;;;;;5035890;28;20400;-78
2022/05/23 11:12:53;;;;;;;3.78;1.88;;;;;;;;;;5035405;28;20045;-79
2022/05/23 11:16:24;;;;;;;5.20;1.90;;;;;;;;;;5042378;28;20049;-79
2022/05/23 11:19:56;;;;;;;7.05;2.22;;;;;;;;;;4991424;28;20049;-78
2022/05/23 11:22:45;;;;;;;2.85;2.05;;;;;;;;;;5035377;28;20404;-79
2022/05/23 11:25:37;;;;;;;2.92;1.67;;;;;;;;;;5042188;28;20049;-79
2022/05/23 11:35:02;;;;;;;4.13;2.42;;;;;;;;;;5042692;28;20053;-81
2022/05/23 11:37:50;;;;;;;8.00;2.40;;;;;;;;;;5044623;28;20041;-78
2022/05/23 11:40:39;;;;;;;4.10;2.20;;;;;;;;;;5039987;28;20045;-78
2022/05/23 11:43:26;;;;;;;2.67;2.20;;;;;;;;;;5027748;28;20041;-80
2022/05/23 11:46:13;;;;;;;11.35;2.60;;;;;;;;;;5041924;28;20045;-79
2022/05/23 11:49:00;;;;;;;3.55;2.10;;;;;;;;;;5019753;28;20049;-79
2022/05/23 11:51:59;;;;;;;7.60;4.70;;;;;;;;;;5026514;28;20041;-80
2022/05/23 11:54:44;;;;;;;4.03;2.20;;;;;;;;;;5040940;28;20045;-81
2022/05/23 11:57:38;;;;;;;6.78;2.20;;;;;;;;;;5035042;28;20045;-80
2022/05/23 12:00:32;;;;;;;3.28;2.42;;;;;;;;;;5041509;28;20447;-80
2022/05/23 12:03:18;;;;;;;5.55;2.40;;;;;;;;;;5026193;28;20041;-81
2022/05/23 12:06:38;;;;;;;4.13;2.72;;;;;;;;;;5034339;28;20045;-79
2022/05/23 12:09:26;;;;;;;6.75;3.28;;;;;;;;;;5040749;28;20045;-78
2022/05/23 12:12:29;;;;;;;7.60;3.33;;;;;;;;;;5041075;28;20049;-79
2022/05/23 12:15:43;;;;;;;5.72;3.22;;;;;;;;;;5040784;28;20045;-81
2022/05/23 12:18:36;;;;;;;6.13;2.80;;;;;;;;;;5034640;28;20475;-81
2022/05/23 12:21:36;;;;;;;5.68;3.15;;;;;;;;;;5034327;28;20053;-81
2022/05/23 12:24:31;;;;;;;4.20;3.10;;;;;;;;;;5040562;28;20045;-81
2022/05/23 12:27:28;;;;;;;5.53;4.10;;;;;;;;;;5034971;28;20049;-79
2022/05/23 12:30:20;;;;;;;5.43;3.97;;;;;;;;;;5040222;28;20049;-84
2022/05/23 12:33:10;;;;;;;9.63;5.18;;;;;;;;;;5034095;28;20056;-80
2022/05/23 12:36:05;;;;;;;10.02;5.07;;;;;;;;;;5025650;28;20045;-79
2022/05/23 12:39:07;;;;;;;6.25;4.68;;;;;;;;;;5040711;28;20049;-79
2022/05/23 12:42:06;;;;;;;11.43;4.55;;;;;;;;;;5033886;28;20045;-80
2022/05/23 12:44:58;;;;;;;7.75;4.70;;;;;;;;;;5033812;28;20049;-81
2022/05/23 12:48:05;;;;;;;5.75;3.85;;;;;;;;;;5033882;28;20049;-80
2022/05/23 12:51:11;;;;;;;9.50;4.68;;;;;;;;;;5039400;28;20050;-81
2022/05/23 12:54:25;;;;;;;10.63;4.57;;;;;;;;;;5040604;28;20046;-78
2022/05/23 12:57:33;;;;;;;6.03;3.80;;;;;;;;;;5040344;28;20480;-80
2022/05/23 13:00:22;;;;;;;9.30;4.22;;;;;;;;;;5040299;28;20041;-79
2022/05/23 13:03:12;;;;;;;7.13;4.65;;;;;;;;;;5040471;28;20053;-77
2022/05/23 13:06:18;;;;;;;13.85;5.00;;;;;;;;;;5025151;28;20049;-78
2022/05/23 13:09:11;;;;;;;11.15;4.43;;;;;;;;;;5040318;28;20045;-77
2022/05/23 13:12:05;;;;;;;9.20;4.28;;;;;;;;;;5037711;28;20049;-79
2022/05/23 13:14:58;;;;;;;11.15;5.00;;;;;;;;;;5040573;28;20049;-79
2022/05/23 13:17:45;;;;;;;7.93;4.18;;;;;;;;;;5042276;28;20053;-78
2022/05/23 13:23:36;;;;;;;12.90;4.05;;;;;;;;;;5041982;28;20053;-79
2022/05/23 13:26:21;;;;;;;7.38;4.20;;;;;;;;;;5041901;28;20049;-77
2022/05/23 13:29:12;;;;;;;7.32;4.10;;;;;;;;;;5034647;28;20053;-78
2022/05/23 13:32:07;;;;;;;5.13;3.00;;;;;;;;;;5042081;28;20046;-77
2022/05/23 13:34:55;;;;;;;5.57;3.30;;;;;;;;;;5034991;28;20053;-78
2022/05/23 13:37:40;;;;;;;7.05;3.30;;;;;;;;;;5033024;28;20097;-77
2022/05/23 13:40:29;;;;;;;6.68;3.00;;;;;;;;;;5020082;28;20408;-81
2022/05/23 13:43:19;;;;;;;6.47;2.95;;;;;;;;;;5032816;28;20049;-80
2022/05/23 13:46:26;;;;;;;7.15;3.40;;;;;;;;;;5034477;28;20396;-77
2022/05/23 13:49:24;;;;;;;6.70;3.28;;;;;;;;;;5033588;28;20049;-80
2022/05/23 13:52:14;;;;;;;9.25;3.35;;;;;;;;;;5043701;28;20045;-78
2022/05/23 13:55:07;;;;;;;5.00;3.10;;;;;;;;;;5043459;28;20045;-80
2022/05/23 13:58:01;;;;;;;6.40;3.40;;;;;;;;;;5043669;28;20041;-79
2022/05/23 14:00:55;;;;;;;9.18;4.10;;;;;;;;;;5037188;28;20037;-77
2022/05/23 14:03:42;;;;;;;8.07;3.60;;;;;;;;;;5043072;28;20049;-80
2022/05/23 14:06:32;;;;;;;7.55;3.67;;;;;;;;;;5043795;28;20399;-80
2022/05/23 14:09:18;;;;;;;8.77;4.35;;;;;;;;;;5036774;28;20045;-78
2022/05/23 14:12:11;;;;;;;6.78;4.18;;;;;;;;;;5041851;28;20471;-77
2022/05/23 14:15:04;;;;;;;10.25;4.72;;;;;;;;;;5037388;28;20045;-78
2022/05/23 14:17:52;;;;;;;;;;;;;;;;;;5015207;28;20041;-79
2022/05/23 14:20:45;;;;;;;8.88;4.40;;;;;;;;;;5023722;28;19913;-79
2022/05/23 14:23:33;;;;;;;7.38;4.07;;;;;;;;;;5034885;28;20471;-77
2022/05/23 14:26:20;;;;;;;8.20;3.47;;;;;;;;;;5022706;28;20485;-77
2022/05/23 14:29:13;;;;;;;7.80;3.40;;;;;;;;;;5023245;28;20054;-79
2022/05/23 14:32:01;;;;;;;6.43;3.70;;;;;;;;;;5024208;28;20058;-79
2022/05/23 14:34:52;;;;;;;5.70;3.35;;;;;;;;;;5033800;28;20053;-81
2022/05/23 14:37:40;;;;;;;5.55;2.83;;;;;;;;;;5035771;28;20042;-79
2022/05/23 14:40:35;;;;;;;5.50;3.00;;;;;;;;;;5017163;28;20050;-78
2022/05/23 14:43:31;;;;;;;3.92;2.80;;;;;;;;;;5002941;28;20038;-78
2022/05/23 14:46:22;;;;;;;7.68;2.75;;;;;;;;;;5015718;28;20037;-81
2022/05/23 14:49:16;;;;;;;8.85;2.85;;;;;;;;;;5019960;28;20481;-77
2022/05/23 14:52:17;;;;;;;9.63;2.40;;;;;;;;;;5008853;28;20485;-80
2022/05/23 14:55:18;;;;;;;7.93;2.60;;;;;;;;;;5013272;28;20058;-79
2022/05/23 15:01:16;;;;;;;5.97;2.80;;;;;;;;;;5013048;28;20489;-79
2022/05/23 15:04:04;;;;;;;3.90;2.67;;;;;;;;;;5007542;28;20072;-78
2022/05/23 15:06:49;;;;;;;7.25;3.30;;;;;;;;;;5020872;28;20050;-79
2022/05/23 15:09:35;;;;;;;5.57;3.15;;;;;;;;;;5021461;28;20054;-78
2022/05/23 15:12:22;;;;;;;11.50;3.20;;;;;;;;;;5015766;28;20038;-79
2022/05/23 15:15:08;;;;;;;5.32;2.90;;;;;;;;;;4995889;28;20042;-81
2022/05/23 15:17:53;;;;;;;5.78;2.55;;;;;;;;;;5012381;28;20057;-80
2022/05/23 15:20:41;;;;;;;7.45;2.65;;;;;;;;;;5022346;28;20049;-81
2022/05/23 15:23:27;;;;;;;5.75;2.60;;;;;;;;;;5022750;28;20053;-81
2022/05/23 15:26:19;;;;;;;21.70;14.00;;;;;;;;;;5016044;28;20477;-79
2022/05/23 15:29:03;;;;;;;11.05;3.97;;;;;;;;;;5021796;28;20053;-82
2022/05/23 15:31:51;;;;;;;5.20;2.70;;;;;;;;;;5022197;28;20045;-79
2022/05/23 15:34:37;;;;;;;6.72;2.70;;;;;;;;;;5015220;28;20042;-79
2022/05/23 15:37:22;;;;;;;5.45;2.90;;;;;;;;;;5015175;28;20496;-84
2022/05/23 15:40:08;;;;;;;4.90;2.95;;;;;;;;;;5022476;28;20481;-79
2022/05/23 15:42:54;;;;;;;8.15;3.17;;;;;;;;;;5040954;28;20432;-79
2022/05/23 15:45:45;;;;;;;5.05;2.60;;;;;;;;;;5039924;28;20045;-83
2022/05/23 15:48:31;;;;;;;8.55;2.70;;;;;;;;;;5030219;28;20046;-81
2022/05/23 15:51:18;;;;;;;5.97;2.72;;;;;;;;;;5017298;28;20057;-79
2022/05/23 15:54:07;;;;;;;6.85;2.90;;;;;;;;;;5025342;28;20049;-81
2022/05/23 15:56:51;;;;;;;9.48;3.03;;;;;;;;;;5021266;28;20505;-80
2022/05/23 15:59:38;;;;;;;7.15;3.00;;;;;;;;;;5035515;28;20496;-78
2022/05/23 16:02:23;;;;;;;4.68;2.50;;;;;;;;;;5041299;28;20045;-78
2022/05/23 16:05:09;;;;;;;4.65;2.38;;;;;;;;;;5040977;28;20045;-78
2022/05/23 16:07:54;;;;;;;7.00;2.63;;;;;;;;;;5040668;28;20404;-76
2022/05/23 16:10:50;;;;;;;5.65;2.75;;;;;;;;;;5040151;28;20392;-78
2022/05/23 16:13:35;;;;;;;6.75;2.60;;;;;;;;;;5041096;28;20050;-79
2022/05/23 16:16:25;;;;;;;7.75;2.67;;;;;;;;;;5040896;28;20045;-77
2022/05/23 16:19:14;;;;;;;10.98;3.10;;;;;;;;;;5040742;28;20053;-78
2022/05/23 16:22:03;;;;;;;4.68;3.40;;;;;;;;;;5040935;28;20049;-78
2022/05/23 16:24:52;;;;;;;4.40;2.70;;;;;;;;;;5040528;28;20049;-78
2022/05/23 16:27:38;;;;;;;5.68;2.63;;;;;;;;;;5039577;28;20041;-78
2022/05/23 16:30:25;;;;;;;4.38;2.88;;;;;;;;;;5035904;28;20053;-77
2022/05/23 16:39:22;;;;;;;8.45;2.70;;;;;;;;;;5020171;28;20485;-78
2022/05/23 16:42:07;;;;;;;6.63;3.10;;;;;;;;;;5020851;28;20393;-79
2022/05/23 16:44:53;;;;;;;9.18;3.08;;;;;;;;;;5023142;28;20046;-77
2022/05/23 16:47:38;;;;;;;11.13;3.22;;;;;;;;;;5039549;28;20041;-80
2022/05/23 16:50:23;;;;;;;8.02;4.13;;;;;;;;;;5040534;28;20431;-76
2022/05/23 16:53:09;;;;;;;7.63;3.40;;;;;;;;;;5039345;28;20041;-77
2022/05/23 16:55:56;;;;;;;6.30;2.65;;;;;;;;;;5039485;28;20476;-79
2022/05/23 16:58:43;;;;;;;4.57;2.42;;;;;;;;;;5039377;28;20400;-79
2022/05/23 17:01:29;;;;;;;6.75;2.83;;;;;;;;;;5040707;28;20053;-78
2022/05/23 17:04:14;;;;;;;7.78;2.55;;;;;;;;;;5040321;28;20042;-78
2022/05/23 17:07:00;;;;;;;13.60;3.50;;;;;;;;;;5028821;28;20037;-77
2022/05/23 17:09:48;;;;;;;4.90;2.47;;;;;;;;;;5027872;28;20050;-79
2022/05/23 17:12:33;;;;;;;6.20;2.60;;;;;;;;;;5026736;28;20042;-78
2022/05/23 17:15:18;;;;;;;5.53;2.63;;;;;;;;;;5029781;28;20054;-78
2022/05/23 17:18:05;;;;;;;11.98;2.70;;;;;;;;;;5034676;28;20057;-77
2022/05/23 17:20:52;;;;;;;4.40;2.53;;;;;;;;;;5037422;28;20050;-79
2022/05/23 17:23:39;;;;;;;12.00;3.00;;;;;;;;;;5036477;28;20045;-76
2022/05/23 17:26:24;;;;;;;10.82;2.90;;;;;;;;;;5041445;28;20045;-78
2022/05/23 17:29:10;;;;;;;6.82;2.88;;;;;;;;;;5044212;28;20045;-77
2022/05/23 17:31:57;;;;;;;8.85;2.83;;;;;;;;;;5028311;28;20045;-79
2022/05/23 17:34:43;;;;;;;6.07;2.75;;;;;;;;;;5041625;28;20041;-79
2022/05/23 17:37:29;;;;;;;5.35;2.78;;;;;;;;;;5042335;28;20050;-80
2022/05/23 17:40:16;;;;;;;9.30;3.80;;;;;;;;;;5032510;28;20476;-77
2022/05/23 17:43:01;;;;;;;7.82;3.42;;;;;;;;;;5029754;28;20049;-79
2022/05/23 17:45:46;;;;;;;7.60;3.75;;;;;;;;;;5039510;28;20046;-79
2022/05/23 17:48:33;;;;;;;11.57;4.10;;;;;;;;;;5021544;28;20050;-78
2022/05/23 17:51:19;;;;;;;10.77;3.85;;;;;;;;;;5016132;28;20049;-77
2022/05/23 17:54:04;;;;;;;7.47;3.60;;;;;;;;;;5027508;28;20045;-81
2022/05/23 17:56:50;;;;;;;7.10;3.95;;;;;;;;;;5022352;28;20046;-79
2022/05/23 17:59:35;;;;;;;13.32;3.40;;;;;;;;;;5033421;28;20041;-78
2022/05/23 18:02:21;;;;;;;7.72;3.05;;;;;;;;;;5030160;28;20484;-77
2022/05/23 18:05:07;;;;;;;4.68;2.95;;;;;;;;;;5035119;28;20049;-79
2022/05/23 18:07:58;;;;;;;3.90;2.72;;;;;;;;;;5038884;28;20042;-79
2022/05/23 18:10:44;;;;;;;6.10;3.03;;;;;;;;;;5042791;28;20049;-79
2022/05/23 18:19:08;;;;;;;12.68;2.88;;;;;;;;;;5043917;28;20492;-79
2022/05/23 18:19:41;;;;;;;7.83;2.80;;;;;;;;;;5036417;28;20045;-80
2022/05/23 18:22:27;;;;;;;7.32;3.55;;;;;;;;;;5035375;28;20275;-78
2022/05/23 18:25:13;;;;;;;12.43;3.55;;;;;;;;;;5042481;28;20046;-78